createdAt,value
2022-08-21T00:00:55.759Z,1.50
2022-08-21T00:03:24.507Z,1.50
2022-08-21T00:05:54.453Z,1.83
2022-08-21T00:08:23.350Z,2.17
2022-08-21T00:10:52.273Z,1.70
2022-08-21T00:13:21.771Z,1.45
2022-08-21T00:15:51.086Z,1.70
2022-08-21T00:18:21.543Z,1.45
2022-08-21T00:20:49.997Z,1.42
2022-08-21T00:23:19.075Z,1.83
2022-08-21T00:25:47.705Z,1.67
2022-08-21T00:28:17.246Z,2.47
2022-08-21T00:30:47.066Z,2.35
2022-08-21T00:33:15.639Z,1.80
2022-08-21T00:35:46.080Z,2.78
2022-08-21T00:38:15.514Z,1.77
2022-08-21T00:40:47.894Z,2.40
2022-08-21T00:43:21.613Z,2.38
2022-08-21T00:45:50.121Z,2.72
2022-08-21T00:48:18.700Z,1.70
2022-08-21T00:50:55.495Z,1.73
2022-08-21T00:53:24.587Z,1.77
2022-08-21T00:55:54.016Z,2.22
2022-08-21T00:58:28.496Z,2.10
2022-08-21T01:00:56.998Z,2.60
2022-08-21T01:03:27.257Z,2.67
2022-08-21T01:05:57.255Z,2.20
2022-08-21T01:08:26.125Z,2.55
2022-08-21T01:10:55.974Z,2.22
2022-08-21T01:13:25.655Z,2.28
2022-08-21T01:15:58.740Z,1.98
2022-08-21T01:18:28.115Z,3.67
2022-08-21T01:21:13.553Z,2.38
2022-08-21T01:23:46.774Z,2.38
2022-08-21T01:26:18.510Z,2.42
2022-08-21T01:28:54.062Z,3.05
2022-08-21T01:31:27.744Z,2.58
2022-08-21T01:33:57.947Z,3.22
2022-08-21T01:36:28.461Z,2.47
2022-08-21T01:38:57.090Z,2.45
2022-08-21T01:41:25.560Z,2.67
2022-08-21T01:43:53.958Z,2.00
2022-08-21T01:46:22.325Z,2.40
2022-08-21T01:48:51.362Z,2.75
2022-08-21T01:51:20.357Z,3.13
2022-08-21T01:53:50.273Z,2.10
2022-08-21T01:56:20.114Z,2.22
2022-08-21T01:58:49.954Z,1.80
2022-08-21T02:01:18.743Z,1.95
2022-08-21T02:03:47.297Z,1.95
2022-08-21T02:06:19.099Z,1.85
2022-08-21T02:08:51.508Z,2.25
2022-08-21T02:11:20.288Z,2.33
2022-08-21T02:13:48.734Z,2.25
2022-08-21T02:16:19.378Z,1.75
2022-08-21T02:18:48.830Z,1.83
2022-08-21T02:21:17.369Z,2.75
2022-08-21T02:23:46.368Z,2.17
2022-08-21T02:26:16.296Z,1.63
2022-08-21T02:28:44.765Z,2.70
2022-08-21T02:31:13.759Z,2.08
2022-08-21T02:33:42.763Z,1.63
2022-08-21T02:36:13.017Z,1.45
2022-08-21T02:38:44.008Z,1.60
2022-08-21T02:41:17.383Z,2.03
2022-08-21T02:43:46.420Z,1.75
2022-08-21T02:46:18.390Z,1.92
2022-08-21T02:48:47.375Z,1.67
2022-08-21T02:51:19.577Z,1.58
2022-08-21T02:53:49.590Z,1.42
2022-08-21T02:56:23.469Z,1.85
2022-08-21T02:58:54.656Z,1.20
2022-08-21T03:01:23.164Z,2.08
2022-08-21T03:03:51.982Z,1.65
2022-08-21T03:06:23.552Z,1.60
2022-08-21T03:08:52.157Z,2.15
2022-08-21T03:11:22.252Z,1.58
2022-08-21T03:13:50.651Z,2.28
2022-08-21T03:16:20.536Z,1.70
2022-08-21T03:18:49.118Z,1.48
2022-08-21T03:21:19.915Z,1.90
2022-08-21T03:23:48.387Z,1.55
2022-08-21T03:26:16.890Z,1.35
2022-08-21T03:28:49.800Z,1.58
2022-08-21T03:31:18.690Z,1.25
2022-08-21T03:33:47.191Z,1.50
2022-08-21T03:36:15.571Z,1.00
2022-08-21T03:38:44.448Z,1.00
2022-08-21T03:41:12.855Z,0.80
2022-08-21T03:43:41.255Z,0.85
2022-08-21T03:46:11.940Z,0.90
2022-08-21T03:48:41.705Z,1.00
2022-08-21T03:51:10.441Z,0.60
2022-08-21T03:53:39.011Z,0.70
2022-08-21T03:56:08.783Z,0.90
2022-08-21T03:58:37.239Z,0.80
2022-08-21T04:01:08.171Z,0.65
2022-08-21T04:03:39.604Z,0.82
2022-08-21T04:06:09.420Z,0.75
2022-08-21T04:08:38.117Z,0.70
2022-08-21T04:11:07.713Z,1.20
2022-08-21T04:13:42.249Z,0.80
2022-08-21T04:16:13.283Z,0.88
2022-08-21T04:18:43.803Z,0.75
2022-08-21T04:21:13.701Z,0.88
2022-08-21T04:23:42.571Z,1.10
2022-08-21T04:26:11.151Z,0.60
2022-08-21T04:28:39.617Z,0.88
2022-08-21T04:31:09.734Z,1.58
2022-08-21T04:33:38.207Z,1.20
2022-08-21T04:36:09.176Z,1.48
2022-08-21T04:38:37.900Z,1.10
2022-08-21T04:41:12.608Z,1.33
2022-08-21T04:43:41.403Z,1.08
2022-08-21T04:46:09.748Z,1.45
2022-08-21T04:48:42.710Z,1.05
2022-08-21T04:51:18.177Z,1.77
2022-08-21T04:53:51.239Z,1.45
2022-08-21T04:56:25.918Z,1.35
2022-08-21T04:58:57.814Z,1.23
2022-08-21T05:01:30.258Z,1.13
2022-08-21T05:04:02.129Z,1.38
2022-08-21T05:06:38.026Z,0.98
2022-08-21T05:09:07.632Z,1.00
2022-08-21T05:11:36.227Z,1.38
2022-08-21T05:14:04.720Z,1.13
2022-08-21T05:16:37.163Z,1.85
2022-08-21T05:19:06.708Z,1.30
2022-08-21T05:21:37.766Z,1.38
2022-08-21T05:24:06.448Z,1.70
2022-08-21T05:26:45.505Z,1.10
2022-08-21T05:29:16.592Z,1.80
2022-08-21T05:31:46.119Z,1.98
2022-08-21T05:34:16.248Z,1.83
2022-08-21T05:36:47.611Z,1.27
2022-08-21T05:39:16.855Z,2.28
2022-08-21T05:41:45.298Z,1.73
2022-08-21T05:44:13.752Z,1.70
2022-08-21T05:46:42.223Z,2.00
2022-08-21T05:49:10.938Z,2.05
2022-08-21T05:51:41.343Z,1.80
2022-08-21T05:54:12.060Z,1.75
2022-08-21T05:56:40.440Z,1.50
2022-08-21T05:59:08.960Z,1.70
2022-08-21T06:01:37.616Z,1.80
2022-08-21T06:04:07.143Z,2.97
2022-08-21T06:06:35.982Z,1.90
2022-08-21T06:09:05.222Z,1.98
2022-08-21T06:11:35.564Z,2.10
2022-08-21T06:14:03.989Z,2.13
2022-08-21T06:16:32.610Z,2.25
2022-08-21T06:19:03.099Z,1.50
2022-08-21T06:21:31.773Z,1.77
2022-08-21T06:24:00.368Z,2.00
2022-08-21T06:26:30.229Z,1.98
2022-08-21T06:29:00.097Z,1.70
2022-08-21T06:31:30.221Z,1.80
2022-08-21T06:33:59.300Z,1.92
2022-08-21T06:36:27.823Z,2.03
2022-08-21T06:38:57.860Z,2.30
2022-08-21T06:41:27.059Z,1.60
2022-08-21T06:43:57.295Z,1.50
2022-08-21T06:46:30.464Z,1.55
2022-08-21T06:49:00.105Z,1.88
2022-08-21T06:51:29.514Z,1.70
2022-08-21T06:53:58.808Z,2.80
2022-08-21T06:56:28.009Z,1.80
2022-08-21T06:58:56.473Z,1.80
2022-08-21T07:01:29.132Z,1.85
2022-08-21T07:03:57.915Z,2.42
2022-08-21T07:06:26.786Z,2.10
2022-08-21T07:08:58.946Z,2.28
2022-08-21T07:11:27.995Z,1.70
2022-08-21T07:13:57.633Z,2.58
2022-08-21T07:16:27.713Z,2.05
2022-08-21T07:18:56.120Z,2.58
2022-08-21T07:21:26.178Z,1.95
2022-08-21T07:23:55.491Z,2.42
2022-08-21T07:26:25.629Z,1.92
2022-08-21T07:28:54.590Z,2.03
2022-08-21T07:31:25.510Z,2.60
2022-08-21T07:33:55.592Z,1.88
2022-08-21T07:36:24.489Z,2.47
2022-08-21T07:38:53.174Z,2.45
2022-08-21T07:41:24.200Z,1.55
2022-08-21T07:43:53.250Z,2.13
2022-08-21T07:46:22.847Z,1.85
2022-08-21T07:48:51.222Z,1.73
2022-08-21T07:51:29.997Z,1.73
2022-08-21T07:54:00.842Z,1.80
2022-08-21T07:56:31.976Z,2.42
2022-08-21T07:59:00.505Z,1.65
2022-08-21T08:01:29.078Z,1.45
2022-08-21T08:03:57.948Z,2.10
2022-08-21T08:06:27.923Z,2.63
2022-08-21T08:08:56.307Z,2.17
2022-08-21T08:11:24.894Z,2.08
2022-08-21T08:13:54.765Z,2.53
2022-08-21T08:16:23.212Z,1.83
2022-08-21T08:18:52.453Z,2.28
2022-08-21T08:21:21.997Z,2.75
2022-08-21T08:23:52.388Z,2.80
2022-08-21T08:26:20.841Z,2.70
2022-08-21T08:28:49.734Z,2.75
2022-08-21T08:31:18.124Z,3.25
2022-08-21T08:33:46.548Z,3.10
2022-08-21T08:36:17.319Z,2.00
2022-08-21T08:38:48.849Z,2.53
2022-08-21T08:41:23.810Z,2.25
2022-08-21T08:44:05.227Z,2.50
2022-08-21T08:46:38.593Z,2.60
2022-08-21T08:49:16.051Z,2.10
2022-08-21T08:51:53.018Z,2.10
2022-08-21T08:54:32.604Z,2.38
2022-08-21T08:57:05.068Z,2.50
2022-08-21T08:59:43.727Z,3.00
2022-08-21T09:02:15.220Z,2.13
2022-08-21T09:04:45.577Z,1.95
2022-08-21T09:07:25.262Z,2.35
2022-08-21T09:10:16.375Z,2.03
2022-08-21T09:13:04.437Z,2.03
2022-08-21T09:15:41.022Z,1.75
2022-08-21T09:18:29.607Z,1.60
2022-08-21T09:21:12.096Z,1.23
2022-08-21T09:23:52.254Z,1.33
2022-08-21T09:26:23.739Z,1.88
2022-08-21T09:28:58.361Z,1.35
2022-08-21T09:31:30.694Z,1.30
2022-08-21T09:34:04.691Z,1.52
2022-08-21T09:36:41.113Z,1.35
2022-08-21T09:39:11.435Z,1.10
2022-08-21T09:41:41.558Z,1.15
2022-08-21T09:44:11.580Z,0.95
2022-08-21T09:46:40.074Z,1.30
2022-08-21T09:49:14.907Z,1.10
2022-08-21T09:51:55.752Z,1.25
2022-08-21T09:54:32.517Z,1.15
2022-08-21T09:57:30.465Z,1.00
2022-08-21T10:00:13.173Z,0.93
2022-08-21T10:02:41.609Z,1.10
2022-08-21T10:05:19.675Z,1.23
2022-08-21T10:07:48.203Z,0.95
2022-08-21T10:10:20.642Z,1.08
2022-08-21T10:13:06.187Z,0.73
2022-08-21T10:15:50.154Z,1.08
2022-08-21T10:18:29.996Z,0.80
2022-08-21T10:21:11.383Z,1.85
2022-08-21T10:23:56.719Z,1.67
2022-08-21T10:26:45.035Z,1.45
2022-08-21T10:29:31.127Z,1.10
2022-08-21T10:32:25.650Z,1.13
2022-08-21T10:35:07.685Z,1.95
2022-08-21T10:37:54.164Z,1.90
2022-08-21T10:40:32.005Z,1.90
2022-08-21T10:43:18.809Z,1.63
2022-08-21T10:46:02.304Z,1.52
2022-08-21T10:48:39.139Z,1.80
2022-08-21T10:51:18.075Z,1.33
2022-08-21T10:54:01.857Z,1.60
2022-08-21T10:56:33.680Z,1.20
2022-08-21T10:59:20.933Z,1.30
2022-08-21T11:01:56.934Z,1.20
2022-08-21T11:04:48.925Z,1.25
2022-08-21T11:07:24.774Z,1.08
2022-08-21T11:09:56.426Z,0.70
2022-08-21T11:12:35.437Z,0.60
2022-08-21T11:15:29.272Z,0.70
2022-08-21T11:18:12.280Z,0.93
2022-08-21T11:20:51.087Z,0.60
2022-08-21T11:23:35.924Z,0.77
2022-08-21T11:26:10.129Z,1.13
2022-08-21T11:28:44.908Z,0.82
2022-08-21T11:31:30.557Z,0.90
2022-08-21T11:34:15.499Z,1.80
2022-08-21T11:36:53.925Z,0.70
2022-08-21T11:39:28.934Z,0.80
2022-08-21T11:42:10.762Z,1.17
2022-08-21T11:44:54.927Z,0.75
2022-08-21T11:47:35.289Z,0.57
2022-08-21T11:50:30.002Z,0.82
2022-08-21T11:53:19.629Z,0.77
2022-08-21T11:55:53.105Z,1.25
2022-08-21T11:58:27.586Z,1.15
2022-08-21T12:01:01.045Z,0.65
2022-08-21T12:03:33.079Z,0.85
2022-08-21T12:06:07.648Z,1.10
2022-08-21T12:08:40.450Z,0.95
2022-08-21T12:11:24.024Z,0.95
2022-08-21T12:14:13.185Z,1.15
2022-08-21T12:16:44.171Z,1.00
2022-08-21T12:19:16.737Z,1.40
2022-08-21T12:21:55.502Z,1.17
2022-08-21T12:24:37.891Z,0.90
2022-08-21T12:27:28.433Z,1.42
2022-08-21T12:30:01.487Z,0.93
2022-08-21T12:32:32.180Z,0.70
2022-08-21T12:35:14.153Z,0.82
2022-08-21T12:38:04.359Z,0.80
2022-08-21T12:40:41.831Z,1.38
2022-08-21T12:43:18.459Z,1.13
2022-08-21T12:45:50.147Z,1.20
2022-08-21T12:48:27.231Z,1.33
2022-08-21T12:50:58.655Z,1.23
2022-08-21T12:53:32.626Z,1.40
2022-08-21T12:56:05.178Z,0.85
2022-08-21T12:58:34.069Z,0.95
2022-08-21T13:01:07.096Z,0.90
2022-08-21T13:03:39.146Z,0.77
2022-08-21T13:06:10.638Z,0.95
2022-08-21T13:08:41.838Z,1.05
2022-08-21T13:11:32.757Z,1.45
2022-08-21T13:14:05.377Z,1.30
2022-08-21T13:16:35.658Z,1.15
2022-08-21T13:19:09.602Z,1.15
2022-08-21T13:21:44.038Z,1.00
2022-08-21T13:27:23.563Z,0.80
2022-08-21T13:30:08.912Z,1.73
2022-08-21T13:32:43.051Z,1.10
2022-08-21T13:35:19.022Z,1.35
2022-08-21T13:37:50.980Z,1.13
2022-08-21T13:40:28.889Z,1.23
2022-08-21T13:42:59.678Z,1.73
2022-08-21T13:45:33.060Z,1.60
2022-08-21T13:48:06.465Z,1.80
2022-08-21T13:50:44.926Z,1.10
2022-08-21T13:53:29.640Z,0.80
2022-08-21T13:56:00.989Z,1.25
2022-08-21T13:58:35.802Z,1.90
2022-08-21T14:01:05.032Z,1.77
2022-08-21T14:03:38.896Z,1.55
2022-08-21T14:06:16.656Z,1.10
2022-08-21T14:08:52.846Z,1.88
2022-08-21T14:11:21.957Z,1.17
2022-08-21T14:13:59.134Z,1.20
2022-08-21T14:16:31.561Z,1.40
2022-08-21T14:19:13.398Z,1.30
2022-08-21T14:21:45.145Z,1.40
2022-08-21T14:24:19.333Z,1.23
2022-08-21T14:26:53.587Z,1.73
2022-08-21T14:29:28.497Z,1.52
2022-08-21T14:32:21.709Z,1.20
2022-08-21T14:34:52.740Z,1.67
2022-08-21T14:37:23.193Z,1.15
2022-08-21T14:39:53.589Z,2.10
2022-08-21T14:42:22.660Z,1.40
2022-08-21T14:44:53.210Z,1.70
2022-08-21T14:47:21.694Z,1.63
2022-08-21T14:49:50.339Z,1.67
2022-08-21T14:52:18.822Z,1.42
2022-08-21T14:54:47.202Z,1.42
2022-08-21T14:57:15.711Z,1.35
2022-08-21T14:59:44.625Z,1.77
2022-08-21T15:02:15.077Z,1.38
2022-08-21T15:04:43.867Z,2.05
2022-08-21T15:07:12.608Z,2.08
2022-08-21T15:09:41.077Z,1.60
2022-08-21T15:12:11.025Z,1.85
2022-08-21T15:14:42.643Z,1.40
2022-08-21T15:17:14.835Z,2.05
2022-08-21T15:19:43.534Z,1.10
2022-08-21T15:22:18.860Z,1.55
2022-08-21T15:24:49.604Z,1.83
2022-08-21T15:27:20.774Z,2.25
2022-08-21T15:29:49.587Z,2.45
2022-08-21T15:32:30.815Z,1.90
2022-08-21T15:35:00.926Z,1.52
2022-08-21T15:37:29.839Z,2.13
2022-08-21T15:39:58.331Z,1.83
2022-08-21T15:42:29.477Z,2.10
2022-08-21T15:45:03.554Z,2.78
2022-08-21T15:47:37.609Z,2.03
2022-08-21T15:50:11.459Z,1.90
2022-08-21T15:52:41.606Z,3.53
2022-08-21T15:55:13.676Z,1.90
2022-08-21T15:57:58.101Z,1.65
2022-08-21T16:00:36.521Z,1.67
2022-08-21T16:03:13.431Z,1.63
2022-08-21T16:05:43.449Z,2.05
2022-08-21T16:08:13.167Z,2.08
2022-08-21T16:10:42.330Z,2.33
2022-08-21T16:13:18.671Z,2.20
2022-08-21T16:15:49.877Z,2.05
2022-08-21T16:18:23.318Z,2.17
2022-08-21T16:20:53.964Z,2.05
2022-08-21T16:23:23.400Z,2.53
2022-08-21T16:25:53.074Z,2.13
2022-08-21T16:28:24.882Z,2.60
2022-08-21T16:30:54.252Z,1.90
2022-08-21T16:33:32.967Z,1.88
2022-08-21T16:36:02.944Z,3.00
2022-08-21T16:38:32.775Z,2.70
2022-08-21T16:41:09.002Z,2.38
2022-08-21T16:43:38.023Z,2.17
2022-08-21T16:46:07.278Z,2.08
2022-08-21T16:48:38.231Z,1.83
2022-08-21T16:51:08.040Z,2.28
2022-08-21T16:53:38.019Z,2.28
2022-08-21T16:56:09.094Z,1.85
2022-08-21T16:58:43.193Z,2.13
2022-08-21T17:01:15.744Z,2.47
2022-08-21T17:03:51.154Z,1.77
2022-08-21T17:06:28.058Z,2.40
2022-08-21T17:09:01.179Z,2.13
2022-08-21T17:11:38.029Z,2.60
2022-08-21T17:14:12.271Z,2.20
2022-08-21T17:16:44.122Z,2.03
2022-08-21T17:19:16.568Z,2.70
2022-08-21T17:21:46.674Z,1.90
2022-08-21T17:24:17.604Z,1.90
2022-08-21T17:26:49.480Z,2.13
2022-08-21T17:29:22.264Z,1.75
2022-08-21T17:31:51.072Z,2.60
2022-08-21T17:34:23.387Z,3.08
2022-08-21T17:37:03.077Z,4.00
2022-08-21T17:39:34.946Z,4.38
2022-08-21T17:42:11.117Z,2.45
2022-08-21T17:44:42.654Z,3.70
2022-08-21T17:47:16.723Z,2.30
2022-08-21T17:49:48.773Z,2.72
2022-08-21T17:52:17.847Z,2.00
2022-08-21T17:54:49.534Z,2.08
2022-08-21T17:57:22.893Z,1.80
2022-08-21T17:59:56.370Z,2.20
2022-08-21T18:02:27.212Z,2.53
2022-08-21T18:04:59.846Z,2.60
2022-08-21T18:07:32.303Z,2.10
2022-08-21T18:10:02.696Z,2.42
2022-08-21T18:12:32.238Z,2.55
2022-08-21T18:15:02.370Z,2.47
2022-08-21T18:17:33.660Z,2.55
2022-08-21T18:20:05.420Z,2.75
2022-08-21T18:22:34.699Z,2.97
2022-08-21T18:25:03.152Z,2.45
2022-08-21T18:27:32.135Z,2.90
2022-08-21T18:30:01.922Z,2.97
2022-08-21T18:32:32.251Z,2.53
2022-08-21T18:35:04.721Z,2.53
2022-08-21T18:37:33.391Z,2.25
2022-08-21T18:40:02.127Z,2.40
2022-08-21T18:42:35.825Z,2.78
2022-08-21T18:45:11.596Z,3.08
2022-08-21T18:47:45.473Z,2.17
2022-08-21T18:50:20.808Z,2.33
2022-08-21T18:52:53.567Z,2.92
2022-08-21T18:55:24.680Z,2.20
2022-08-21T18:57:55.307Z,2.53
2022-08-21T19:00:29.272Z,2.60
2022-08-21T19:02:59.382Z,2.85
2022-08-21T19:05:30.064Z,2.75
2022-08-21T19:07:59.227Z,3.13
2022-08-21T19:10:29.591Z,2.20
2022-08-21T19:13:01.674Z,2.40
2022-08-21T19:15:31.145Z,2.40
2022-08-21T19:18:01.012Z,2.10
2022-08-21T19:20:37.263Z,2.58
2022-08-21T19:23:08.555Z,2.20
2022-08-21T19:25:41.867Z,2.05
2022-08-21T19:28:22.989Z,2.25
2022-08-21T19:30:58.854Z,2.38
2022-08-21T19:33:34.575Z,2.20
2022-08-21T19:36:10.137Z,1.55
2022-08-21T19:38:39.886Z,2.33
2022-08-21T19:41:11.788Z,2.17
2022-08-21T19:43:45.967Z,2.40
2022-08-21T19:46:22.064Z,2.42
2022-08-21T19:48:51.450Z,2.22
2022-08-21T19:51:22.046Z,1.77
2022-08-21T19:56:42.059Z,2.63
2022-08-21T19:59:11.428Z,2.30
2022-08-21T20:01:45.636Z,2.45
2022-08-21T20:04:19.362Z,2.72
2022-08-21T20:06:50.621Z,2.13
2022-08-21T20:09:21.373Z,2.15
2022-08-21T20:11:53.372Z,3.10
2022-08-21T20:14:26.826Z,2.35
2022-08-21T20:17:01.950Z,2.92
2022-08-21T20:19:32.297Z,2.75
2022-08-21T20:22:03.247Z,2.13
2022-08-21T20:24:34.057Z,1.30
2022-08-21T20:27:06.176Z,1.83
2022-08-21T20:29:39.324Z,2.10
2022-08-21T20:32:12.259Z,2.13
2022-08-21T20:34:44.949Z,2.03
2022-08-21T20:37:36.799Z,1.77
2022-08-21T20:40:11.738Z,1.88
2022-08-21T20:42:44.866Z,2.03
2022-08-21T20:45:19.616Z,1.73
2022-08-21T20:47:52.496Z,2.13
2022-08-21T20:50:27.339Z,2.30
2022-08-21T20:53:06.774Z,2.65
2022-08-21T20:55:42.339Z,1.80
2022-08-21T20:58:20.645Z,1.73
2022-08-21T21:00:51.956Z,2.08
2022-08-21T21:03:30.609Z,2.05
2022-08-21T21:06:04.520Z,2.08
2022-08-21T21:08:41.211Z,2.28
2022-08-21T21:11:22.471Z,1.88
2022-08-21T21:13:57.693Z,2.08
2022-08-21T21:16:32.092Z,1.90
2022-08-21T21:19:04.113Z,2.08
2022-08-21T21:21:36.965Z,1.88
2022-08-21T21:24:13.750Z,2.22
2022-08-21T21:26:49.852Z,2.85
2022-08-21T21:29:24.702Z,2.08
2022-08-21T21:31:54.869Z,1.83
2022-08-21T21:34:24.748Z,2.67
2022-08-21T21:37:02.824Z,2.95
2022-08-21T21:39:39.096Z,2.53
2022-08-21T21:42:30.291Z,3.13
2022-08-21T21:45:28.238Z,3.10
2022-08-21T21:48:19.235Z,2.95
2022-08-21T21:51:00.866Z,2.95
2022-08-21T21:53:54.349Z,3.25
2022-08-21T21:56:36.885Z,3.28
2022-08-21T21:59:29.913Z,2.65
2022-08-21T22:02:06.809Z,3.72
2022-08-21T22:07:40.687Z,3.00
2022-08-21T22:10:30.563Z,3.60
2022-08-21T22:13:14.466Z,2.90
2022-08-21T22:15:55.543Z,3.47
2022-08-21T22:18:31.881Z,3.25
2022-08-21T22:21:05.638Z,3.45
2022-08-21T22:23:44.116Z,2.97
2022-08-21T22:26:17.662Z,3.45
2022-08-21T22:28:50.909Z,3.30
2022-08-21T22:31:22.720Z,3.67
2022-08-21T22:34:17.705Z,3.13
2022-08-21T22:36:51.723Z,3.97
2022-08-21T22:39:39.071Z,3.40
2022-08-21T22:42:13.969Z,2.75
2022-08-21T22:44:56.214Z,3.95
2022-08-21T22:47:32.339Z,4.40
2022-08-21T22:52:54.790Z,2.90
2022-08-21T22:55:28.778Z,2.22
2022-08-21T22:58:12.470Z,3.30
2022-08-21T23:00:54.418Z,2.17
2022-08-21T23:03:33.796Z,2.63
2022-08-21T23:08:54.807Z,2.05
2022-08-21T23:11:30.351Z,2.13
2022-08-21T23:14:00.568Z,3.13
2022-08-21T23:16:47.361Z,2.10
2022-08-21T23:19:28.870Z,3.05
2022-08-21T23:22:16.385Z,2.30
2022-08-21T23:24:59.520Z,2.00
2022-08-21T23:27:44.811Z,2.03
2022-08-21T23:30:18.852Z,2.30
2022-08-21T23:33:25.274Z,2.47
2022-08-21T23:36:37.536Z,3.17
2022-08-21T23:39:26.224Z,3.03
2022-08-21T23:42:05.115Z,2.35
2022-08-21T23:44:54.880Z,3.47
2022-08-21T23:47:41.248Z,2.40
2022-08-21T23:50:15.374Z,2.80
2022-08-21T23:53:09.221Z,3.38
2022-08-21T23:55:54.994Z,3.78
2022-08-21T23:58:37.398Z,3.03
